Time;durP1;ratioP1;P1;durP2;ratioP2;P2;SDS_P1;SDS_P2;PMS_P1;PMS_P2;Temp;Humidity;BMP_temperature;BMP_pressure;BME280_temperature;BME280_humidity;BME280_pressure;Samples;Min_cycle;Max_cycle;Signal;HPM_P1;HPM_P2
2021/08/17 00:00:01;;;;;;;10.07;5.25;;;14.60;99.90;;;;;;5033996;28;20057;-78
2021/08/17 00:02:27;;;;;;;10.10;5.45;;;15.60;99.90;;;;;;5028488;28;20340;-77
2021/08/17 00:04:52;;;;;;;10.10;5.47;;;14.60;99.90;;;;;;5033214;28;20026;-79
2021/08/17 00:07:19;;;;;;;9.02;5.15;;;14.50;99.90;;;;;;5020816;28;20021;-78
2021/08/17 00:09:44;;;;;;;11.55;6.18;;;14.50;99.90;;;;;;5011593;28;20022;-78
2021/08/17 00:12:10;;;;;;;10.00;5.25;;;14.50;99.90;;;;;;5032930;28;20022;-78
2021/08/17 00:14:36;;;;;;;11.88;5.20;;;14.80;99.90;;;;;;5019138;28;20025;-78
2021/08/17 00:17:02;;;;;;;12.23;6.03;;;16.10;99.90;;;;;;5019102;28;20075;-77
2021/08/17 00:19:27;;;;;;;9.80;5.80;;;14.50;99.90;;;;;;5018099;28;20040;-78
2021/08/17 00:21:53;;;;;;;11.73;5.53;;;14.60;99.90;;;;;;5034128;28;20022;-79
2021/08/17 00:24:19;;;;;;;11.60;5.70;;;14.50;99.90;;;;;;5028144;28;20513;-77
2021/08/17 00:26:44;;;;;;;11.75;5.90;;;14.40;99.90;;;;;;5011865;28;20032;-81
2021/08/17 00:29:10;;;;;;;12.20;5.20;;;14.50;99.90;;;;;;5015305;28;20076;-77
2021/08/17 00:31:36;;;;;;;12.95;6.22;;;;;;;;;;5022439;28;20021;-79
2021/08/17 00:34:01;;;;;;;12.23;5.68;;;14.30;99.90;;;;;;5016895;28;20061;-77
2021/08/17 00:36:30;;;;;;;12.00;5.68;;;14.20;99.90;;;;;;5020361;28;20029;-79
2021/08/17 00:38:56;;;;;;;11.30;5.97;;;14.30;99.90;;;;;;5034418;28;20039;-79
2021/08/17 00:41:22;;;;;;;12.23;5.90;;;16.00;99.90;;;;;;5019907;28;20025;-80
2021/08/17 00:43:48;;;;;;;12.88;5.88;;;14.30;99.90;;;;;;5038021;28;20108;-79
2021/08/17 00:46:14;;;;;;;13.13;6.65;;;14.70;99.90;;;;;;5019836;28;20383;-78
2021/08/17 00:48:42;;;;;;;16.77;6.90;;;14.20;99.90;;;;;;5013781;28;20048;-78
2021/08/17 00:51:08;;;;;;;14.82;6.97;;;14.20;99.90;;;;;;5018962;28;20041;-77
2021/08/17 00:53:35;;;;;;;12.23;6.22;;;14.20;99.90;;;;;;5000016;28;1055782;-77
2021/08/17 00:56:01;;;;;;;14.13;5.70;;;15.20;99.90;;;;;;5015114;28;20049;-79
2021/08/17 00:58:28;;;;;;;13.15;6.13;;;14.40;99.90;;;;;;5036878;28;20056;-80
2021/08/17 01:00:56;;;;;;;11.50;5.70;;;15.50;99.90;;;;;;5015897;28;20051;-79
2021/08/17 01:03:22;;;;;;;11.63;5.65;;;14.20;99.90;;;;;;5029551;28;20479;-77
2021/08/17 01:05:48;;;;;;;11.85;6.20;;;;;;;;;;5016572;28;20028;-79
2021/08/17 01:08:13;;;;;;;13.20;6.10;;;14.20;99.90;;;;;;5019274;28;20474;-78
2021/08/17 01:10:41;;;;;;;13.23;6.05;;;14.10;99.90;;;;;;5018411;28;20398;-77
2021/08/17 01:13:07;;;;;;;11.00;5.45;;;14.10;99.90;;;;;;5031362;28;20032;-78
2021/08/17 01:15:33;;;;;;;16.73;7.10;;;14.00;99.90;;;;;;5035039;28;20014;-79
2021/08/17 01:18:00;;;;;;;14.45;6.68;;;14.00;99.90;;;;;;5018279;28;20543;-78
2021/08/17 01:20:25;;;;;;;13.48;6.10;;;14.00;99.90;;;;;;5034854;28;20155;-78
2021/08/17 01:22:54;;;;;;;11.93;6.30;;;;;;;;;;5019810;28;20079;-80
2021/08/17 01:25:20;;;;;;;13.13;6.35;;;14.00;99.90;;;;;;5037837;28;20044;-79
2021/08/17 01:27:46;;;;;;;13.05;6.10;;;;;;;;;;5018760;28;20053;-80
2021/08/17 01:30:14;;;;;;;13.45;6.25;;;14.00;99.90;;;;;;5034708;28;20417;-78
2021/08/17 01:32:39;;;;;;;11.48;5.95;;;14.00;99.90;;;;;;5011502;28;20021;-77
2021/08/17 01:35:06;;;;;;;11.18;5.60;;;14.00;99.90;;;;;;5022050;28;20049;-78
2021/08/17 01:37:31;;;;;;;14.38;7.07;;;13.90;99.90;;;;;;5015940;28;20063;-79
2021/08/17 01:40:02;;;;;;;14.35;6.25;;;13.90;99.90;;;;;;5037600;28;20021;-78
2021/08/17 01:42:30;;;;;;;14.05;7.22;;;13.90;99.90;;;;;;5012500;28;20021;-78
2021/08/17 01:44:59;;;;;;;15.05;7.13;;;13.50;99.90;;;;;;5041103;28;20017;-79
2021/08/17 01:47:29;;;;;;;14.73;6.95;;;13.90;99.90;;;;;;5016650;28;20026;-78
2021/08/17 01:49:55;;;;;;;14.25;6.80;;;13.90;99.90;;;;;;5019967;28;20017;-79
2021/08/17 01:52:21;;;;;;;14.50;7.18;;;13.50;99.90;;;;;;5019526;28;20462;-76
2021/08/17 01:54:46;;;;;;;17.52;6.88;;;13.80;99.90;;;;;;5020256;28;20030;-78
2021/08/17 01:57:12;;;;;;;13.73;7.25;;;14.30;99.90;;;;;;5037235;28;20018;-79
2021/08/17 01:59:37;;;;;;;14.30;7.13;;;13.80;99.90;;;;;;5024066;28;20033;-79
2021/08/17 02:02:03;;;;;;;16.80;7.40;;;13.60;99.90;;;;;;5026942;28;20080;-78
2021/08/17 02:04:31;;;;;;;15.93;7.40;;;13.20;99.90;;;;;;5026009;28;20029;-78
2021/08/17 02:06:56;;;;;;;13.48;6.93;;;14.60;99.90;;;;;;5018144;28;20040;-79
2021/08/17 02:09:22;;;;;;;13.75;6.50;;;13.50;99.90;;;;;;5038540;28;20017;-79
2021/08/17 02:11:47;;;;;;;13.32;6.43;;;13.60;99.90;;;;;;5037220;28;20025;-81
2021/08/17 02:14:13;;;;;;;14.75;6.78;;;13.60;99.90;;;;;;5020170;28;20030;-78
2021/08/17 02:16:38;;;;;;;14.18;6.90;;;14.60;99.90;;;;;;5018201;28;20029;-78
2021/08/17 02:19:04;;;;;;;12.40;6.30;;;13.40;99.90;;;;;;5004783;28;20557;-75
2021/08/17 02:21:30;;;;;;;14.77;7.43;;;15.10;99.90;;;;;;5012804;28;20018;-80
2021/08/17 02:23:55;;;;;;;14.15;6.93;;;13.50;99.90;;;;;;5021822;28;20033;-79
2021/08/17 02:26:21;;;;;;;13.52;7.47;;;13.40;99.90;;;;;;5032320;28;20056;-79
2021/08/17 02:28:47;;;;;;;13.43;6.82;;;13.40;99.90;;;;;;5016453;28;20030;-79
2021/08/17 02:31:12;;;;;;;11.30;6.18;;;15.70;99.90;;;;;;5032811;28;20041;-80
2021/08/17 02:33:38;;;;;;;12.15;6.28;;;13.30;99.90;;;;;;5020106;28;20032;-79
2021/08/17 02:36:04;;;;;;;11.30;5.68;;;13.10;99.90;;;;;;5033099;28;20085;-77
2021/08/17 02:38:30;;;;;;;13.98;6.10;;;13.10;99.90;;;;;;5039745;28;20028;-79
2021/08/17 02:40:56;;;;;;;15.13;6.97;;;14.70;99.90;;;;;;5022268;28;20112;-80
2021/08/17 02:43:24;;;;;;;13.00;6.40;;;13.10;99.90;;;;;;5017797;28;20459;-80
2021/08/17 02:45:51;;;;;;;13.52;6.50;;;14.40;99.90;;;;;;5017159;28;20025;-79
2021/08/17 02:48:18;;;;;;;15.88;6.82;;;13.00;99.90;;;;;;5017781;28;20024;-80
2021/08/17 02:50:43;;;;;;;13.48;6.47;;;12.90;99.90;;;;;;5020625;28;20048;-81
2021/08/17 02:53:09;;;;;;;12.13;6.20;;;12.90;99.90;;;;;;5034053;28;20029;-79
2021/08/17 02:55:35;;;;;;;12.00;5.85;;;12.80;99.90;;;;;;5020985;28;20029;-78
2021/08/17 02:58:08;;;;;;;13.20;6.20;;;12.80;99.90;;;;;;5037166;28;20022;-78
2021/08/17 03:00:35;;;;;;;11.27;5.78;;;14.00;99.90;;;;;;5007879;28;20459;-78
2021/08/17 03:03:01;;;;;;;12.68;5.78;;;12.80;99.90;;;;;;5022936;28;20021;-78
2021/08/17 03:05:26;;;;;;;13.60;6.03;;;12.80;99.90;;;;;;5039416;28;20664;-79
2021/08/17 03:07:55;;;;;;;12.45;6.50;;;12.80;99.90;;;;;;5036823;28;20018;-79
2021/08/17 03:10:22;;;;;;;13.27;6.78;;;14.20;99.90;;;;;;5017819;28;20034;-78
2021/08/17 03:12:48;;;;;;;13.55;6.40;;;12.80;99.90;;;;;;5023126;28;20025;-79
2021/08/17 03:15:15;;;;;;;15.73;7.28;;;12.80;99.90;;;;;;5019787;28;20026;-77
2021/08/17 03:17:41;;;;;;;17.45;8.13;;;12.80;99.90;;;;;;5018552;28;20026;-77
2021/08/17 03:20:08;;;;;;;17.33;7.95;;;12.90;99.90;;;;;;5030014;28;20039;-77
2021/08/17 03:22:35;;;;;;;15.95;7.55;;;12.90;99.90;;;;;;5021321;28;20095;-78
2021/08/17 03:25:01;;;;;;;16.38;7.32;;;12.90;99.90;;;;;;5035767;28;20026;-79
2021/08/17 03:27:26;;;;;;;15.85;6.68;;;12.70;99.90;;;;;;5003881;28;20109;-80
2021/08/17 03:29:52;;;;;;;14.45;6.85;;;;;;;;;;5021263;28;20045;-79
2021/08/17 03:32:18;;;;;;;20.80;7.70;;;12.40;99.90;;;;;;5039763;28;20022;-80
2021/08/17 03:34:43;;;;;;;15.80;7.38;;;12.40;99.90;;;;;;5021680;28;20029;-78
2021/08/17 03:37:09;;;;;;;15.13;6.80;;;12.30;99.90;;;;;;5011879;28;20029;-78
2021/08/17 03:39:35;;;;;;;16.25;7.20;;;12.30;99.90;;;;;;5020724;28;20037;-79
2021/08/17 03:42:00;;;;;;;15.48;6.85;;;12.30;99.90;;;;;;5007799;28;20025;-80
2021/08/17 03:44:26;;;;;;;14.85;7.05;;;12.40;99.90;;;;;;5012249;28;20061;-80
2021/08/17 03:46:52;;;;;;;16.80;7.80;;;12.40;99.90;;;;;;5010915;28;20101;-79
2021/08/17 03:49:18;;;;;;;16.63;7.63;;;12.50;99.90;;;;;;5040052;28;20458;-78
2021/08/17 03:51:43;;;;;;;16.10;7.40;;;12.60;99.90;;;;;;5018235;28;20063;-80
2021/08/17 03:54:09;;;;;;;18.85;8.25;;;12.60;99.90;;;;;;5017070;28;20079;-77
2021/08/17 03:56:35;;;;;;;16.13;7.43;;;12.60;99.90;;;;;;5027601;28;20030;-77
2021/08/17 03:59:00;;;;;;;17.55;7.55;;;12.50;99.90;;;;;;5039681;28;20037;-78
2021/08/17 04:01:26;;;;;;;17.33;7.85;;;12.50;99.90;;;;;;5036398;28;20083;-79
2021/08/17 04:03:51;;;;;;;15.95;7.50;;;12.40;99.90;;;;;;5004040;28;20034;-79
2021/08/17 04:06:17;;;;;;;17.13;7.35;;;12.40;99.90;;;;;;5015362;28;20096;-78
2021/08/17 04:08:42;;;;;;;17.75;7.45;;;12.30;99.90;;;;;;5021035;28;20022;-80
2021/08/17 04:11:08;;;;;;;17.33;7.47;;;12.40;99.90;;;;;;5022577;28;20056;-78
2021/08/17 04:13:34;;;;;;;17.45;7.82;;;12.40;99.90;;;;;;5029112;28;20033;-79
2021/08/17 04:16:00;;;;;;;16.45;7.10;;;;;;;;;;5014435;28;20029;-77
2021/08/17 04:18:25;;;;;;;14.52;7.43;;;12.20;99.90;;;;;;5013237;28;20052;-80
2021/08/17 04:20:51;;;;;;;16.52;7.70;;;12.20;99.90;;;;;;5018329;28;20490;-79
2021/08/17 04:23:17;;;;;;;17.83;8.13;;;12.20;99.90;;;;;;5039416;28;20104;-77
2021/08/17 04:25:42;;;;;;;20.08;8.20;;;12.30;99.90;;;;;;5042822;28;20030;-79
2021/08/17 04:28:08;;;;;;;16.88;7.72;;;12.30;99.90;;;;;;5020490;28;20037;-78
2021/08/17 04:30:34;;;;;;;19.40;7.95;;;;;;;;;;5022929;28;20025;-79
2021/08/17 04:33:00;;;;;;;17.85;8.63;;;12.30;99.90;;;;;;5023866;28;20017;-79
2021/08/17 04:35:25;;;;;;;16.98;8.10;;;12.20;99.90;;;;;;5018215;28;20108;-79
2021/08/17 04:37:51;;;;;;;16.35;7.72;;;13.50;99.90;;;;;;5021435;28;20029;-77
2021/08/17 04:40:17;;;;;;;17.30;7.55;;;12.20;99.90;;;;;;5020665;28;20116;-76
2021/08/17 04:42:42;;;;;;;17.95;7.45;;;12.30;99.90;;;;;;5045190;28;20029;-77
2021/08/17 04:45:09;;;;;;;20.80;8.10;;;12.30;99.90;;;;;;5017793;28;20039;-80
2021/08/17 04:47:34;;;;;;;18.42;8.68;;;12.30;99.90;;;;;;5016912;28;20072;-80
2021/08/17 04:50:00;;;;;;;18.02;7.90;;;12.20;99.90;;;;;;5014244;28;20473;-77
2021/08/17 04:52:26;;;;;;;17.00;7.75;;;12.20;99.90;;;;;;5011912;28;20025;-78
2021/08/17 04:54:51;;;;;;;21.08;9.65;;;12.20;99.90;;;;;;5033483;28;20102;-78
2021/08/17 04:57:17;;;;;;;15.52;7.53;;;12.10;99.90;;;;;;5020068;28;20062;-77
2021/08/17 04:59:43;;;;;;;20.52;8.82;;;12.00;99.90;;;;;;5022502;28;20025;-80
2021/08/17 05:02:08;;;;;;;17.50;8.57;;;12.00;99.90;;;;;;5018491;28;20052;-78
2021/08/17 05:04:34;;;;;;;17.75;8.05;;;14.00;99.90;;;;;;5024759;28;20025;-79
2021/08/17 05:06:59;;;;;;;20.85;8.48;;;11.90;99.90;;;;;;5018494;28;20025;-76
2021/08/17 05:09:25;;;;;;;18.85;8.95;;;11.70;99.90;;;;;;5012648;28;20021;-78
2021/08/17 05:11:51;;;;;;;19.17;8.55;;;11.70;99.90;;;;;;5018506;28;20033;-79
2021/08/17 05:14:17;;;;;;;22.83;8.68;;;12.80;99.90;;;;;;5028978;28;20037;-79
2021/08/17 05:16:43;;;;;;;19.42;7.90;;;;;;;;;;5010915;28;20050;-79
2021/08/17 05:19:09;;;;;;;21.33;9.02;;;11.70;99.90;;;;;;5013375;28;20026;-78
2021/08/17 05:21:34;;;;;;;21.52;8.90;;;11.70;99.90;;;;;;5018141;28;20111;-79
2021/08/17 05:24:00;;;;;;;22.40;8.73;;;11.80;99.90;;;;;;5038371;28;20112;-77
2021/08/17 05:26:25;;;;;;;21.35;9.48;;;11.80;99.90;;;;;;5019945;28;20430;-77
2021/08/17 05:28:54;;;;;;;19.52;8.95;;;11.80;99.90;;;;;;5020492;28;20040;-78
2021/08/17 05:31:20;;;;;;;20.30;8.90;;;11.80;99.90;;;;;;5017432;28;20018;-79
2021/08/17 05:33:45;;;;;;;19.30;9.23;;;11.80;99.90;;;;;;5015152;28;20032;-79
2021/08/17 05:36:11;;;;;;;18.17;8.52;;;11.80;99.90;;;;;;5016406;28;20045;-81
2021/08/17 05:38:37;;;;;;;18.73;8.70;;;12.30;99.90;;;;;;5037413;28;20060;-80
2021/08/17 05:41:02;;;;;;;22.85;9.68;;;12.20;99.90;;;;;;5020719;28;20026;-80
2021/08/17 05:43:28;;;;;;;19.30;9.20;;;12.10;99.90;;;;;;5014508;28;20505;-77
2021/08/17 05:45:53;;;;;;;21.17;8.90;;;14.00;99.90;;;;;;5020668;28;20026;-78
2021/08/17 05:48:19;;;;;;;20.15;9.20;;;12.10;99.90;;;;;;5021316;28;20757;-79
2021/08/17 05:50:45;;;;;;;21.02;9.45;;;;;;;;;;5015662;28;20025;-80
2021/08/17 05:53:11;;;;;;;22.77;9.50;;;12.20;99.90;;;;;;5036805;28;20033;-79
2021/08/17 05:55:36;;;;;;;23.58;9.32;;;12.70;99.90;;;;;;5015826;28;20022;-78
2021/08/17 05:58:03;;;;;;;20.65;9.55;;;;;;;;;;5012232;28;20056;-78
2021/08/17 06:00:29;;;;;;;22.30;9.73;;;12.40;99.90;;;;;;5036833;28;20021;-76
2021/08/17 06:02:55;;;;;;;26.10;11.75;;;12.20;99.90;;;;;;5018011;28;20100;-80
2021/08/17 06:05:21;;;;;;;24.23;10.80;;;12.10;99.90;;;;;;5028149;28;20041;-78
2021/08/17 06:07:47;;;;;;;31.77;11.85;;;12.30;99.90;;;;;;5017851;28;20033;-77
2021/08/17 06:10:14;;;;;;;27.25;11.88;;;12.50;99.90;;;;;;5020159;28;20022;-77
2021/08/17 06:12:40;;;;;;;28.67;12.82;;;12.50;99.90;;;;;;5038040;28;20612;-78
2021/08/17 06:15:06;;;;;;;30.75;13.02;;;12.50;99.90;;;;;;5018308;28;20096;-79
2021/08/17 06:17:31;;;;;;;28.60;12.95;;;12.50;99.90;;;;;;5012030;28;20113;-78
2021/08/17 06:19:57;;;;;;;26.30;12.60;;;12.50;99.90;;;;;;5014459;28;20045;-80
2021/08/17 06:22:23;;;;;;;31.77;14.52;;;12.50;99.90;;;;;;5023950;28;20060;-77
2021/08/17 06:24:48;;;;;;;24.42;12.15;;;12.60;99.90;;;;;;5043618;28;20068;-79
2021/08/17 06:27:16;;;;;;;28.60;13.00;;;13.20;99.90;;;;;;5019156;28;20037;-77
2021/08/17 06:29:41;;;;;;;24.52;11.15;;;13.90;99.90;;;;;;5018178;28;20117;-76
2021/08/17 06:32:07;;;;;;;29.73;13.07;;;12.80;99.90;;;;;;5035780;28;20049;-77
2021/08/17 06:34:33;;;;;;;31.00;13.60;;;12.60;99.90;;;;;;5028052;28;20037;-78
2021/08/17 06:36:59;;;;;;;31.05;14.25;;;12.70;99.90;;;;;;5021400;28;20040;-79
2021/08/17 06:39:24;;;;;;;30.77;13.80;;;14.40;99.90;;;;;;5021267;28;20024;-81
2021/08/17 06:41:50;;;;;;;26.45;12.23;;;13.10;99.90;;;;;;5013050;28;20713;-78
2021/08/17 06:44:15;;;;;;;28.70;13.18;;;14.30;99.90;;;;;;5034230;28;20025;-77
2021/08/17 06:46:41;;;;;;;29.13;13.65;;;13.30;99.90;;;;;;5024140;28;20033;-77
2021/08/17 06:49:07;;;;;;;27.17;13.35;;;13.60;99.90;;;;;;5014901;28;20102;-79
2021/08/17 06:51:32;;;;;;;28.35;12.00;;;15.90;99.90;;;;;;5038492;28;20493;-79
2021/08/17 06:53:58;;;;;;;30.13;13.38;;;13.70;99.90;;;;;;5019394;28;20033;-79
2021/08/17 06:56:24;;;;;;;30.48;13.32;;;13.70;99.90;;;;;;5020519;28;20781;-79
2021/08/17 06:58:49;;;;;;;30.55;14.48;;;13.90;99.90;;;;;;5014637;28;20041;-81
2021/08/17 07:01:15;;;;;;;28.40;13.18;;;13.80;99.90;;;;;;5033338;28;20092;-78
2021/08/17 07:03:40;;;;;;;27.95;13.48;;;15.00;99.90;;;;;;5014337;28;20030;-80
2021/08/17 07:06:06;;;;;;;26.95;13.25;;;13.90;99.90;;;;;;5026779;28;20026;-78
2021/08/17 07:08:32;;;;;;;26.90;12.90;;;14.00;99.90;;;;;;5021045;28;20022;-77
2021/08/17 07:10:57;;;;;;;26.85;12.60;;;14.50;99.90;;;;;;5020140;28;20080;-79
2021/08/17 07:13:26;;;;;;;24.08;11.90;;;14.20;99.90;;;;;;5025738;28;20513;-79
2021/08/17 07:15:52;;;;;;;24.55;11.90;;;14.40;99.90;;;;;;5021421;28;20032;-79
2021/08/17 07:18:18;;;;;;;26.52;12.70;;;16.30;99.90;;;;;;5021787;28;20495;-79
2021/08/17 07:20:44;;;;;;;24.65;12.75;;;14.50;99.90;;;;;;5019487;28;20078;-78
2021/08/17 07:23:10;;;;;;;24.63;11.93;;;14.60;99.90;;;;;;5022862;28;20295;-78
2021/08/17 07:25:36;;;;;;;24.42;11.60;;;;;;;;;;5041961;28;20017;-78
2021/08/17 07:28:03;;;;;;;21.77;11.50;;;14.90;99.90;;;;;;5036378;28;20038;-80
2021/08/17 07:30:28;;;;;;;23.52;11.35;;;15.00;99.90;;;;;;5024428;28;20379;-79
2021/08/17 07:32:54;;;;;;;24.42;11.43;;;15.20;99.90;;;;;;5021970;28;20026;-78
2021/08/17 07:35:20;;;;;;;22.27;10.50;;;15.40;99.90;;;;;;5021863;28;20032;-77
2021/08/17 07:37:48;;;;;;;21.20;9.98;;;15.60;99.90;;;;;;5019644;28;20018;-79
2021/08/17 07:40:16;;;;;;;21.33;11.05;;;15.80;99.90;;;;;;5020306;28;20025;-77
2021/08/17 07:42:42;;;;;;;25.00;11.60;;;15.80;99.90;;;;;;5005954;28;20037;-78
2021/08/17 07:45:11;;;;;;;22.75;10.80;;;15.90;99.90;;;;;;5035860;28;20148;-76
2021/08/17 07:47:38;;;;;;;23.95;10.82;;;16.00;99.90;;;;;;5039640;28;20063;-77
2021/08/17 07:50:06;;;;;;;23.80;11.88;;;16.20;99.90;;;;;;5015721;28;20026;-75
2021/08/17 07:52:35;;;;;;;19.67;10.27;;;16.50;99.90;;;;;;5037290;28;20037;-76
2021/08/17 07:55:02;;;;;;;24.33;11.35;;;16.60;99.90;;;;;;5032877;28;20034;-77
2021/08/17 07:57:29;;;;;;;19.75;10.27;;;16.80;99.90;;;;;;5038591;28;20026;-77
2021/08/17 07:59:55;;;;;;;20.83;10.77;;;17.00;99.90;;;;;;5037710;28;20125;-78
2021/08/17 08:02:21;;;;;;;20.90;10.13;;;17.30;99.90;;;;;;5022238;28;20045;-79
2021/08/17 08:04:46;;;;;;;17.15;9.65;;;17.60;99.90;;;;;;5026487;28;20025;-77
2021/08/17 08:07:12;;;;;;;22.17;10.75;;;17.80;99.90;;;;;;5038616;28;20030;-78
2021/08/17 08:09:37;;;;;;;19.02;9.55;;;18.40;99.90;;;;;;5027207;28;20033;-76
2021/08/17 08:12:03;;;;;;;18.95;9.13;;;17.80;99.70;;;;;;5022874;28;20048;-77
2021/08/17 08:14:29;;;;;;;18.98;10.68;;;17.80;99.90;;;;;;5022267;28;20509;-77
2021/08/17 08:16:58;;;;;;;22.45;10.27;;;17.70;99.90;;;;;;5040255;28;20120;-78
2021/08/17 08:19:24;;;;;;;20.10;10.65;;;;;;;;;;5020048;28;20487;-79
2021/08/17 08:21:50;;;;;;;16.75;8.95;;;17.70;99.60;;;;;;5039192;28;20025;-79
2021/08/17 08:24:15;;;;;;;18.42;9.40;;;17.70;99.90;;;;;;5041164;28;20040;-78
2021/08/17 08:26:41;;;;;;;18.08;9.45;;;17.80;99.70;;;;;;5035396;28;20029;-74
2021/08/17 08:29:07;;;;;;;18.58;9.80;;;17.90;99.90;;;;;;5023474;28;20021;-79
2021/08/17 08:31:32;;;;;;;18.63;9.90;;;17.80;99.70;;;;;;5032161;28;20022;-77
2021/08/17 08:33:58;;;;;;;18.63;9.80;;;17.80;99.80;;;;;;5020848;28;20025;-79
2021/08/17 08:36:24;;;;;;;25.13;10.20;;;18.10;99.50;;;;;;5022245;28;20091;-78
2021/08/17 08:38:49;;;;;;;18.20;9.73;;;18.20;98.90;;;;;;5021161;28;20036;-80
2021/08/17 08:41:19;;;;;;;19.42;9.55;;;18.20;98.90;;;;;;5038263;28;20033;-78
2021/08/17 08:43:46;;;;;;;16.38;9.45;;;18.80;98.80;;;;;;5017004;28;20406;-78
2021/08/17 08:46:15;;;;;;;16.80;8.95;;;18.50;97.60;;;;;;5039553;28;20033;-77
2021/08/17 08:48:47;;;;;;;16.75;8.40;;;19.10;98.60;;;;;;5035067;28;20025;-76
2021/08/17 08:51:14;;;;;;;19.38;9.98;;;18.60;98.50;;;;;;5016660;28;20028;-78
2021/08/17 08:53:40;;;;;;;20.77;9.73;;;18.60;98.30;;;;;;5025165;28;20029;-79
2021/08/17 08:56:06;;;;;;;19.02;9.43;;;19.70;98.30;;;;;;5023061;28;20051;-78
2021/08/17 08:58:32;;;;;;;19.45;10.32;;;18.30;98.10;;;;;;5025327;28;20033;-78
2021/08/17 09:00:57;;;;;;;16.17;8.82;;;18.30;98.30;;;;;;5019633;28;20517;-79
2021/08/17 09:03:46;;;;;;;22.10;9.82;;;19.10;97.70;;;;;;5022365;28;20053;-77
2021/08/17 09:06:29;;;;;;;17.80;9.20;;;17.90;98.10;;;;;;5037055;28;20049;-79
2021/08/17 09:09:08;;;;;;;15.43;8.15;;;18.20;98.10;;;;;;5039087;28;20029;-79
2021/08/17 09:11:34;;;;;;;13.40;7.28;;;;;;;;;;5029535;28;20048;-77
2021/08/17 09:14:22;;;;;;;13.48;7.32;;;18.70;94.80;;;;;;5032584;28;20025;-77
2021/08/17 09:16:50;;;;;;;13.85;7.50;;;18.70;94.40;;;;;;5015189;28;20116;-78
2021/08/17 09:19:39;;;;;;;16.10;7.93;;;18.20;94.20;;;;;;5022082;28;20033;-76
2021/08/17 09:22:17;;;;;;;16.38;7.97;;;18.60;95.10;;;;;;5035485;28;20029;-76
2021/08/17 09:24:50;;;;;;;14.50;7.43;;;18.60;95.00;;;;;;5026469;28;20026;-78
2021/08/17 09:27:18;;;;;;;13.07;7.00;;;18.70;95.20;;;;;;5041061;28;20046;-76
2021/08/17 09:29:47;;;;;;;13.48;7.65;;;19.20;94.10;;;;;;5020797;28;20029;-77
2021/08/17 09:32:22;;;;;;;15.63;7.43;;;19.00;94.10;;;;;;5038016;28;20024;-79
2021/08/17 09:34:50;;;;;;;17.02;7.50;;;19.10;93.70;;;;;;5020708;28;20026;-76
2021/08/17 09:37:16;;;;;;;13.63;7.10;;;19.00;94.00;;;;;;5012634;28;20152;-79
2021/08/17 09:39:47;;;;;;;14.35;7.28;;;19.00;94.10;;;;;;5033752;28;20059;-79
2021/08/17 09:42:20;;;;;;;15.75;8.85;;;18.80;93.60;;;;;;5034439;28;20402;-76
2021/08/17 09:45:05;;;;;;;15.07;7.43;;;21.30;94.20;;;;;;5030822;28;20025;-77
2021/08/17 09:47:35;;;;;;;15.73;8.60;;;18.80;94.10;;;;;;5035397;28;20509;-78
2021/08/17 09:50:26;;;;;;;17.50;8.30;;;18.80;94.40;;;;;;5027456;28;20025;-77
2021/08/17 09:53:11;;;;;;;16.75;7.95;;;18.80;94.80;;;;;;5033377;28;20064;-76
2021/08/17 09:55:56;;;;;;;14.63;8.15;;;19.10;94.30;;;;;;5033643;28;20032;-79
2021/08/17 09:58:34;;;;;;;12.90;7.47;;;19.10;94.10;;;;;;5034382;28;20025;-77
2021/08/17 10:01:02;;;;;;;15.25;8.00;;;19.10;94.10;;;;;;5035876;28;20028;-77
2021/08/17 10:03:29;;;;;;;15.65;8.25;;;19.00;93.90;;;;;;5027835;28;20022;-77
2021/08/17 10:05:56;;;;;;;14.02;7.60;;;18.90;94.00;;;;;;5025696;28;20041;-78
2021/08/17 10:08:25;;;;;;;14.40;8.25;;;18.90;93.80;;;;;;5020076;28;20057;-75
2021/08/17 10:10:53;;;;;;;18.15;8.35;;;19.00;94.10;;;;;;5040319;28;20379;-77
2021/08/17 10:13:21;;;;;;;17.67;7.88;;;18.90;93.90;;;;;;5010289;28;20104;-77
2021/08/17 10:15:47;;;;;;;15.77;8.15;;;18.90;94.20;;;;;;5009438;28;20089;-77
2021/08/17 10:18:22;;;;;;;14.50;7.22;;;19.00;94.40;;;;;;5033299;28;20021;-77
2021/08/17 10:20:50;;;;;;;17.17;8.15;;;19.00;93.20;;;;;;5034430;28;20021;-77
2021/08/17 10:23:18;;;;;;;13.32;7.38;;;18.80;93.60;;;;;;5019254;28;20038;-78
2021/08/17 10:25:50;;;;;;;12.13;6.63;;;18.90;94.00;;;;;;5035844;28;20103;-78
2021/08/17 10:28:32;;;;;;;12.40;6.68;;;19.00;93.20;;;;;;5031797;28;20033;-77
2021/08/17 10:31:19;;;;;;;13.48;6.72;;;19.10;93.10;;;;;;5025643;28;20527;-77
2021/08/17 10:33:51;;;;;;;13.90;6.68;;;20.10;92.00;;;;;;5019415;28;20131;-77
2021/08/17 10:36:36;;;;;;;11.30;6.32;;;19.90;91.30;;;;;;5020244;28;20026;-77
2021/08/17 10:39:18;;;;;;;11.00;5.85;;;20.20;90.90;;;;;;5016019;28;20194;-79
2021/08/17 10:41:49;;;;;;;10.85;6.22;;;20.50;90.40;;;;;;5032463;28;20030;-79
2021/08/17 10:44:18;;;;;;;12.57;6.85;;;20.70;89.30;;;;;;5020455;28;20531;-77
2021/08/17 10:46:55;;;;;;;10.45;5.75;;;20.40;90.00;;;;;;5035646;28;20025;-78
2021/08/17 10:49:34;;;;;;;11.88;6.45;;;20.40;90.00;;;;;;5032945;28;20227;-78
2021/08/17 10:52:03;;;;;;;11.73;6.75;;;20.40;90.50;;;;;;5029625;28;20029;-76
2021/08/17 10:54:29;;;;;;;15.43;6.60;;;20.60;89.20;;;;;;5033330;28;20085;-77
2021/08/17 10:56:54;;;;;;;13.25;6.30;;;20.70;88.60;;;;;;5023786;28;20054;-78
2021/08/17 10:59:37;;;;;;;12.05;6.50;;;20.60;89.30;;;;;;5018028;28;20017;-78
2021/08/17 11:02:03;;;;;;;9.85;5.18;;;20.80;88.10;;;;;;5033505;28;20026;-77
2021/08/17 11:04:46;;;;;;;9.73;5.40;;;20.90;85.20;;;;;;5005764;28;20032;-77
2021/08/17 11:07:32;;;;;;;7.20;4.18;;;20.60;84.10;;;;;;5015340;28;20032;-77
2021/08/17 11:10:04;;;;;;;9.70;4.63;;;20.40;79.00;;;;;;5034730;28;20032;-77
2021/08/17 11:12:35;;;;;;;10.25;5.22;;;20.40;81.90;;;;;;5037889;28;20124;-76
2021/08/17 11:15:03;;;;;;;9.48;5.15;;;20.30;83.00;;;;;;5017819;28;20021;-78
2021/08/17 11:17:29;;;;;;;9.07;5.00;;;20.30;83.80;;;;;;5014119;28;20029;-75
2021/08/17 11:19:55;;;;;;;7.80;4.50;;;20.40;83.90;;;;;;5034741;28;20063;-76
2021/08/17 11:22:25;;;;;;;9.52;4.95;;;20.40;83.50;;;;;;5018264;28;20029;-77
2021/08/17 11:24:54;;;;;;;9.25;5.03;;;20.50;81.40;;;;;;5016867;28;20032;-77
2021/08/17 11:27:20;;;;;;;9.25;5.22;;;20.50;82.50;;;;;;5020178;28;20033;-78
2021/08/17 11:29:49;;;;;;;8.18;4.60;;;20.40;82.70;;;;;;5036312;28;20026;-77
2021/08/17 11:32:38;;;;;;;9.90;4.85;;;20.40;83.40;;;;;;5009958;28;20026;-77
2021/08/17 11:35:14;;;;;;;8.90;5.30;;;20.50;83.80;;;;;;5019770;28;20021;-77
2021/08/17 11:37:43;;;;;;;10.23;5.00;;;20.60;83.40;;;;;;5036782;28;20096;-77
2021/08/17 11:40:10;;;;;;;9.18;4.95;;;21.30;81.40;;;;;;5037099;28;20088;-78
2021/08/17 11:42:42;;;;;;;8.38;4.78;;;20.80;81.80;;;;;;5019357;28;20402;-80
2021/08/17 11:45:13;;;;;;;9.32;5.03;;;21.00;81.10;;;;;;5021125;28;20033;-77
2021/08/17 11:47:41;;;;;;;10.63;5.38;;;21.00;80.80;;;;;;5032480;28;20026;-77
2021/08/17 11:50:09;;;;;;;9.43;5.13;;;21.00;81.20;;;;;;5017556;28;20091;-76
2021/08/17 11:52:52;;;;;;;8.23;4.60;;;21.00;81.20;;;;;;5017595;28;20026;-78
2021/08/17 11:55:28;;;;;;;8.88;5.20;;;21.00;80.10;;;;;;5019415;28;20040;-77
2021/08/17 11:57:59;;;;;;;8.65;4.85;;;21.00;79.30;;;;;;5016387;28;20025;-78
2021/08/17 12:00:29;;;;;;;8.95;5.10;;;20.80;79.10;;;;;;5014758;28;20025;-78
2021/08/17 12:03:09;;;;;;;8.57;4.38;;;20.50;80.40;;;;;;5040347;28;20104;-78
2021/08/17 12:05:37;;;;;;;9.68;5.07;;;20.60;80.60;;;;;;5019600;28;20033;-77
2021/08/17 12:08:05;;;;;;;9.55;5.05;;;20.40;81.10;;;;;;5026000;28;20033;-76
2021/08/17 12:10:34;;;;;;;10.20;5.25;;;20.40;81.70;;;;;;5047715;28;20479;-78
2021/08/17 12:13:02;;;;;;;7.30;4.30;;;21.10;83.10;;;;;;5047875;28;20063;-77
2021/08/17 12:15:46;;;;;;;8.77;5.03;;;20.50;81.30;;;;;;5018863;28;20061;-77
2021/08/17 12:18:17;;;;;;;9.18;5.18;;;20.60;81.10;;;;;;5034095;28;20029;-77
2021/08/17 12:20:49;;;;;;;9.90;5.13;;;20.70;81.00;;;;;;5022181;28;20022;-76
2021/08/17 12:23:28;;;;;;;10.27;5.38;;;20.80;80.50;;;;;;5042658;28;20022;-77
2021/08/17 12:26:08;;;;;;;10.60;5.47;;;20.90;78.20;;;;;;5041608;28;20025;-77
2021/08/17 12:28:36;;;;;;;9.68;5.18;;;20.90;79.20;;;;;;5024415;28;20125;-77
2021/08/17 12:31:11;;;;;;;8.80;4.88;;;20.90;79.90;;;;;;5034041;28;20098;-77
2021/08/17 12:33:41;;;;;;;7.88;4.20;;;21.00;79.60;;;;;;5004438;28;20040;-79
2021/08/17 12:36:07;;;;;;;8.77;4.53;;;21.30;80.00;;;;;;5019213;28;20022;-77
2021/08/17 12:38:40;;;;;;;8.15;4.60;;;21.10;79.60;;;;;;5017571;28;20083;-78
2021/08/17 12:41:06;;;;;;;8.60;4.78;;;21.10;79.70;;;;;;5012659;28;20104;-78
2021/08/17 12:43:41;;;;;;;7.50;4.70;;;21.00;78.70;;;;;;5018563;28;20060;-79